createdAt,value
2019-02-19T00:00:37.292Z,65.20
2019-02-19T00:03:09.055Z,63.40
2019-02-19T00:05:40.450Z,68.40
2019-02-19T00:08:12.082Z,66.40
2019-02-19T00:10:43.686Z,81.60
2019-02-19T00:13:14.738Z,80.60
2019-02-19T00:15:46.102Z,69.00
2019-02-19T00:18:17.496Z,68.20
2019-02-19T00:20:49.279Z,60.60
2019-02-19T00:23:20.593Z,58.60
2019-02-19T00:25:51.992Z,59.20
2019-02-19T00:28:23.528Z,59.00
2019-02-19T00:30:55.466Z,61.00
2019-02-19T00:33:26.989Z,64.00
2019-02-19T00:35:58.157Z,48.60
2019-02-19T00:38:29.680Z,58.00
2019-02-19T00:41:00.941Z,55.40
2019-02-19T00:43:35.648Z,62.80
2019-02-19T00:46:07.347Z,57.40
2019-02-19T00:48:39.356Z,64.60
2019-02-19T00:51:10.568Z,61.40
2019-02-19T00:53:41.853Z,52.60
2019-02-19T00:56:13.336Z,55.20
2019-02-19T00:58:45.054Z,61.20
2019-02-19T01:01:16.313Z,54.00
2019-02-19T01:03:47.662Z,54.20
2019-02-19T01:06:18.829Z,61.60
2019-02-19T01:08:50.470Z,62.00
2019-02-19T01:11:21.755Z,58.80
2019-02-19T01:13:54.084Z,67.60
2019-02-19T01:16:25.463Z,58.60
2019-02-19T01:18:56.776Z,69.60
2019-02-19T01:21:27.932Z,65.40
2019-02-19T01:23:59.431Z,72.80
2019-02-19T01:26:30.888Z,65.80
2019-02-19T01:29:02.198Z,58.00
2019-02-19T01:31:33.539Z,59.40
2019-02-19T01:34:04.784Z,64.00
2019-02-19T01:36:36.131Z,66.20
2019-02-19T01:39:07.766Z,63.80
2019-02-19T01:41:39.160Z,61.60
2019-02-19T01:44:10.525Z,59.60
2019-02-19T01:46:41.854Z,66.40
2019-02-19T01:49:13.178Z,73.80
2019-02-19T01:51:44.345Z,70.80
2019-02-19T01:54:16.526Z,55.00
2019-02-19T01:56:47.925Z,66.20
2019-02-19T01:59:19.105Z,74.20
2019-02-19T02:01:50.491Z,81.00
2019-02-19T02:04:21.884Z,80.60
2019-02-19T02:06:53.578Z,87.20
2019-02-19T02:09:25.105Z,93.60
2019-02-19T02:11:56.578Z,109.20
2019-02-19T02:14:28.175Z,131.80
2019-02-19T02:17:00.934Z,137.20
2019-02-19T02:19:32.433Z,119.60
2019-02-19T02:22:03.779Z,104.20
2019-02-19T02:24:36.140Z,115.80
2019-02-19T02:27:07.272Z,106.40
2019-02-19T02:29:38.690Z,105.40
2019-02-19T02:32:09.997Z,115.20
2019-02-19T02:34:41.616Z,111.80
2019-02-19T02:37:13.032Z,114.80
2019-02-19T02:39:44.484Z,113.20
2019-02-19T02:42:16.089Z,117.60
2019-02-19T02:44:47.890Z,112.00
2019-02-19T02:47:19.225Z,110.80
2019-02-19T02:49:51.331Z,123.60
2019-02-19T02:52:22.399Z,140.80
2019-02-19T02:54:54.432Z,148.00
2019-02-19T02:57:25.929Z,142.00
2019-02-19T02:59:58.333Z,150.00
2019-02-19T03:02:30.626Z,144.20
2019-02-19T03:05:02.150Z,143.00
2019-02-19T03:07:43.010Z,159.60
2019-02-19T03:10:14.674Z,135.80
2019-02-19T03:12:45.977Z,137.00
2019-02-19T03:15:19.131Z,152.00
2019-02-19T03:17:50.552Z,154.60
2019-02-19T03:20:22.074Z,196.00
2019-02-19T03:22:53.689Z,179.00
2019-02-19T03:25:25.372Z,182.40
2019-02-19T03:27:56.758Z,176.60
2019-02-19T03:30:28.677Z,178.60
2019-02-19T03:33:00.049Z,162.20
2019-02-19T03:35:31.648Z,126.00
2019-02-19T03:38:03.015Z,136.20
2019-02-19T03:40:36.971Z,135.20
2019-02-19T03:43:09.692Z,131.60
2019-02-19T03:45:42.677Z,104.60
2019-02-19T03:48:14.058Z,89.80
2019-02-19T03:50:45.781Z,106.40
2019-02-19T03:53:17.318Z,93.80
2019-02-19T03:55:49.081Z,83.20
2019-02-19T03:58:20.822Z,87.40
2019-02-19T04:00:52.265Z,98.00
2019-02-19T04:03:23.672Z,103.80
2019-02-19T04:05:55.339Z,113.80
2019-02-19T04:08:27.264Z,98.40
2019-02-19T04:10:58.806Z,109.00
2019-02-19T04:13:30.389Z,94.60
2019-02-19T04:16:01.613Z,93.40
2019-02-19T04:18:34.855Z,82.40
2019-02-19T04:21:06.295Z,102.00
2019-02-19T04:23:38.111Z,75.80
2019-02-19T04:26:09.502Z,77.60
2019-02-19T04:28:40.880Z,92.40
2019-02-19T04:31:12.524Z,75.60
2019-02-19T04:33:44.671Z,67.20
2019-02-19T04:36:16.329Z,56.40
2019-02-19T04:38:48.116Z,47.00
2019-02-19T04:41:19.521Z,40.00
2019-02-19T04:43:51.765Z,47.20
2019-02-19T04:46:31.343Z,58.80
2019-02-19T04:48:56.321Z,55.80
2019-02-19T04:51:27.987Z,62.80
2019-02-19T04:53:59.352Z,59.20
2019-02-19T04:56:30.693Z,63.60
2019-02-19T04:59:02.518Z,58.00
2019-02-19T05:01:34.026Z,61.40
2019-02-19T05:04:08.470Z,54.00
2019-02-19T05:06:40.269Z,57.60
2019-02-19T05:09:11.862Z,50.80
2019-02-19T05:11:43.150Z,56.20
2019-02-19T05:14:14.729Z,55.40
2019-02-19T05:16:46.348Z,55.20
2019-02-19T05:19:17.781Z,45.00
2019-02-19T05:21:49.100Z,54.20
2019-02-19T05:24:20.375Z,48.80
2019-02-19T05:26:51.574Z,50.80
2019-02-19T05:29:23.264Z,52.60
2019-02-19T05:31:55.390Z,50.00
2019-02-19T05:34:27.521Z,50.00
2019-02-19T05:36:59.920Z,56.40
2019-02-19T05:39:31.563Z,48.60
2019-02-19T05:42:02.805Z,60.00
2019-02-19T05:44:34.507Z,49.20
2019-02-19T05:47:06.292Z,55.20
2019-02-19T05:49:38.568Z,56.80
2019-02-19T05:52:09.889Z,60.00
2019-02-19T05:54:41.989Z,60.00
2019-02-19T05:57:13.489Z,59.40
2019-02-19T05:59:45.111Z,50.60
2019-02-19T06:02:16.751Z,55.80
2019-02-19T06:04:48.081Z,51.40
2019-02-19T06:07:19.730Z,48.40
2019-02-19T06:09:51.231Z,52.00
2019-02-19T06:12:22.794Z,52.80
2019-02-19T06:14:54.188Z,58.20
2019-02-19T06:17:25.686Z,55.20
2019-02-19T06:19:57.438Z,51.80
2019-02-19T06:22:28.962Z,65.20
2019-02-19T06:25:00.560Z,48.60
2019-02-19T06:27:32.066Z,61.40
2019-02-19T06:30:03.769Z,53.00
2019-02-19T06:32:35.325Z,45.60
2019-02-19T06:35:07.329Z,53.00
2019-02-19T06:37:38.809Z,49.60
2019-02-19T06:40:17.439Z,52.00
2019-02-19T06:42:49.123Z,61.80
2019-02-19T06:45:20.794Z,52.80
2019-02-19T06:47:51.972Z,49.20
2019-02-19T06:50:23.437Z,43.60
2019-02-19T06:52:55.134Z,57.20
2019-02-19T06:55:26.817Z,46.40
2019-02-19T06:57:58.009Z,55.60
2019-02-19T07:00:29.467Z,50.40
2019-02-19T07:03:06.466Z,52.00
2019-02-19T07:05:39.814Z,53.20
2019-02-19T07:08:10.943Z,56.60
2019-02-19T07:10:42.326Z,50.20
2019-02-19T07:13:13.873Z,47.40
2019-02-19T07:15:45.344Z,43.80
2019-02-19T07:18:16.894Z,41.80
2019-02-19T07:20:49.547Z,47.40
2019-02-19T07:23:20.718Z,39.20
2019-02-19T07:25:52.148Z,44.20
2019-02-19T07:28:23.895Z,40.80
2019-02-19T07:30:55.229Z,41.00
2019-02-19T07:33:26.652Z,41.20
2019-02-19T07:35:57.984Z,43.20
2019-02-19T07:38:29.491Z,37.80
2019-02-19T07:41:00.824Z,45.20
2019-02-19T07:43:32.368Z,34.80
2019-02-19T07:46:03.889Z,36.40
2019-02-19T07:48:35.491Z,41.20
2019-02-19T07:51:07.217Z,38.20
2019-02-19T07:53:38.667Z,35.80
2019-02-19T07:56:10.351Z,38.00
2019-02-19T07:58:41.735Z,39.80
2019-02-19T08:01:13.439Z,36.00
2019-02-19T08:03:45.077Z,37.00
2019-02-19T08:06:16.800Z,40.60
2019-02-19T08:08:48.634Z,40.00
2019-02-19T08:11:19.968Z,43.20
2019-02-19T08:13:51.449Z,47.00
2019-02-19T08:16:23.018Z,42.20
2019-02-19T08:18:54.664Z,46.60
2019-02-19T08:21:27.197Z,50.00
2019-02-19T08:23:58.476Z,49.40
2019-02-19T08:26:31.116Z,38.80
2019-02-19T08:29:13.105Z,43.20
2019-02-19T08:31:35.780Z,42.80
2019-02-19T08:34:07.177Z,44.40
2019-02-19T08:36:39.432Z,42.80
2019-02-19T08:39:10.695Z,36.20
2019-02-19T08:41:43.923Z,46.40
2019-02-19T08:44:15.878Z,37.80
2019-02-19T08:46:47.452Z,37.00
2019-02-19T08:49:19.131Z,39.60
2019-02-19T08:51:56.067Z,36.20
2019-02-19T08:54:24.062Z,41.00
2019-02-19T08:56:57.616Z,42.80
2019-02-19T08:59:29.210Z,44.60
2019-02-19T09:02:00.945Z,40.00
2019-02-19T09:04:32.474Z,41.80
2019-02-19T09:07:04.095Z,40.60
2019-02-19T09:09:35.944Z,33.20
2019-02-19T09:12:08.283Z,37.80
2019-02-19T09:14:40.887Z,43.00
2019-02-19T09:17:12.726Z,39.60
2019-02-19T09:19:44.330Z,36.20
2019-02-19T09:22:16.585Z,39.00
2019-02-19T09:24:48.039Z,51.00
2019-02-19T09:27:21.191Z,45.20
2019-02-19T09:29:53.265Z,37.40
2019-02-19T09:32:25.093Z,40.20
2019-02-19T09:34:56.826Z,42.20
2019-02-19T09:37:28.463Z,37.20
2019-02-19T09:40:01.072Z,35.40
2019-02-19T09:42:32.565Z,43.00
2019-02-19T09:45:05.424Z,36.60
2019-02-19T09:47:37.027Z,43.40
2019-02-19T09:50:13.579Z,42.60
2019-02-19T09:52:45.002Z,39.40
2019-02-19T09:55:16.370Z,30.80
2019-02-19T09:57:48.264Z,42.80
2019-02-19T10:00:20.124Z,43.00
2019-02-19T10:02:51.617Z,40.20
2019-02-19T10:05:23.296Z,37.80
2019-02-19T10:07:55.903Z,32.00
2019-02-19T10:10:27.487Z,38.60
2019-02-19T10:12:58.904Z,46.40
2019-02-19T10:15:30.201Z,38.20
2019-02-19T10:18:09.740Z,38.00
2019-02-19T10:20:34.784Z,39.00
2019-02-19T10:23:06.282Z,40.80
2019-02-19T10:25:37.884Z,45.20
2019-02-19T10:28:09.459Z,44.60
2019-02-19T10:30:40.923Z,39.60
2019-02-19T10:33:12.337Z,42.00
2019-02-19T10:35:43.983Z,31.60
2019-02-19T10:38:15.370Z,35.40
2019-02-19T10:40:46.803Z,40.80
2019-02-19T10:43:18.336Z,34.20
2019-02-19T10:45:49.619Z,39.20
2019-02-19T10:48:20.979Z,38.80
2019-02-19T10:50:52.310Z,42.00
2019-02-19T10:53:23.438Z,36.00
2019-02-19T10:55:54.860Z,37.20
2019-02-19T10:58:26.114Z,41.20
2019-02-19T11:00:57.403Z,42.20
2019-02-19T11:03:29.026Z,41.20
2019-02-19T11:06:00.406Z,41.40
2019-02-19T11:08:31.892Z,46.00
2019-02-19T11:11:03.349Z,43.80
2019-02-19T11:13:34.824Z,38.60
2019-02-19T11:16:06.151Z,43.00
2019-02-19T11:18:37.496Z,37.60
2019-02-19T11:21:08.716Z,39.00
2019-02-19T11:23:40.419Z,39.20
2019-02-19T11:26:11.825Z,40.00
2019-02-19T11:28:43.156Z,38.40
2019-02-19T11:31:14.549Z,49.80
2019-02-19T11:33:46.055Z,44.40
2019-02-19T11:36:17.686Z,38.60
2019-02-19T11:38:49.487Z,50.00
2019-02-19T11:41:20.906Z,35.80
2019-02-19T11:43:52.430Z,43.60
2019-02-19T11:46:25.599Z,45.20
2019-02-19T11:48:57.161Z,39.20
2019-02-19T11:51:28.551Z,41.40
2019-02-19T11:53:59.839Z,33.40
2019-02-19T11:56:31.554Z,41.40
2019-02-19T11:59:02.915Z,35.40
2019-02-19T12:01:34.328Z,41.40
2019-02-19T12:04:05.575Z,33.60
2019-02-19T12:06:36.978Z,47.40
2019-02-19T12:09:08.583Z,42.40
2019-02-19T12:11:40.331Z,44.00
2019-02-19T12:14:11.604Z,40.80
2019-02-19T12:16:43.045Z,52.80
2019-02-19T12:19:14.365Z,48.00
2019-02-19T12:21:45.826Z,44.60
2019-02-19T12:24:17.692Z,48.40
2019-02-19T12:26:49.020Z,50.20
2019-02-19T12:29:20.685Z,50.20
2019-02-19T12:31:52.098Z,52.60
2019-02-19T12:34:23.485Z,50.80
2019-02-19T12:36:55.239Z,53.60
2019-02-19T12:39:26.725Z,56.80
2019-02-19T12:41:58.419Z,55.20
2019-02-19T12:44:29.690Z,53.80
2019-02-19T12:47:02.987Z,50.60
2019-02-19T12:49:34.329Z,49.60
2019-02-19T12:52:05.798Z,59.00
2019-02-19T12:54:37.139Z,67.00
2019-02-19T12:57:08.394Z,56.20
2019-02-19T12:59:39.838Z,50.20
2019-02-19T13:02:11.075Z,52.00
2019-02-19T13:04:42.699Z,60.80
2019-02-19T13:07:14.502Z,54.80
2019-02-19T13:09:45.930Z,54.20
2019-02-19T13:12:17.456Z,61.40
2019-02-19T13:14:48.833Z,56.60
2019-02-19T13:17:20.264Z,53.60
2019-02-19T13:19:51.491Z,60.20
2019-02-19T13:22:23.179Z,57.60
2019-02-19T13:24:54.795Z,56.20
2019-02-19T13:27:26.581Z,61.40
2019-02-19T13:29:57.829Z,59.60
2019-02-19T13:32:29.404Z,55.00
2019-02-19T13:35:01.324Z,61.00
2019-02-19T13:37:33.837Z,58.00
2019-02-19T13:40:05.865Z,64.20
2019-02-19T13:42:37.046Z,68.80
2019-02-19T13:45:09.417Z,68.00
2019-02-19T13:47:40.801Z,73.60
2019-02-19T13:50:15.098Z,65.00
2019-02-19T13:53:08.116Z,79.60
2019-02-19T13:55:42.999Z,75.60
2019-02-19T13:58:14.366Z,77.40
2019-02-19T14:00:47.559Z,83.80
2019-02-19T14:03:18.738Z,85.80
2019-02-19T14:05:49.956Z,82.20
2019-02-19T14:08:21.098Z,83.80
2019-02-19T14:10:52.686Z,83.00
2019-02-19T14:13:23.966Z,88.60
2019-02-19T14:16:18.173Z,85.80
2019-02-19T14:19:01.419Z,80.00
2019-02-19T14:21:51.413Z,81.60
2019-02-19T14:24:33.106Z,82.60
2019-02-19T14:27:29.352Z,88.20
2019-02-19T14:30:25.868Z,93.80
2019-02-19T14:33:14.832Z,87.40
2019-02-19T14:36:17.201Z,88.60
2019-02-19T14:39:14.073Z,85.00
2019-02-19T14:42:22.671Z,88.40
2019-02-19T14:45:28.535Z,100.60
2019-02-19T14:48:17.896Z,98.60
2019-02-19T14:51:14.248Z,109.40
2019-02-19T14:54:10.974Z,120.60
2019-02-19T14:56:50.510Z,100.40
2019-02-19T14:59:50.021Z,103.00
2019-02-19T15:02:40.633Z,111.00
2019-02-19T15:05:43.603Z,94.60
2019-02-19T15:08:32.792Z,93.20
2019-02-19T15:11:22.577Z,92.40
2019-02-19T15:14:01.401Z,85.80
2019-02-19T15:16:52.176Z,92.20
2019-02-19T15:19:38.899Z,103.00
2019-02-19T15:22:34.499Z,96.60
2019-02-19T15:25:40.101Z,94.00
2019-02-19T15:28:32.805Z,93.60
2019-02-19T15:31:21.353Z,92.40
2019-02-19T15:34:14.922Z,87.20
2019-02-19T15:37:10.706Z,108.20
2019-02-19T15:39:59.400Z,125.80
2019-02-19T15:42:55.638Z,103.80
2019-02-19T15:45:49.721Z,139.60
2019-02-19T15:48:49.158Z,107.80
2019-02-19T15:51:39.706Z,104.00
2019-02-19T15:54:29.375Z,101.00
2019-02-19T15:57:15.688Z,119.60
2019-02-19T16:00:20.408Z,116.20
2019-02-19T16:03:14.320Z,106.60
2019-02-19T16:06:00.921Z,115.80
2019-02-19T16:08:42.283Z,109.20
2019-02-19T16:11:29.557Z,110.60
2019-02-19T16:14:18.754Z,106.80
2019-02-19T16:17:08.230Z,104.40
2019-02-19T16:19:58.313Z,104.80
2019-02-19T16:22:42.269Z,95.80
2019-02-19T16:25:38.502Z,105.40
2019-02-19T16:28:38.525Z,105.20
2019-02-19T16:31:23.765Z,103.60
2019-02-19T16:34:17.065Z,123.20
2019-02-19T16:37:03.831Z,129.20
2019-02-19T16:39:52.619Z,135.40
2019-02-19T16:42:55.429Z,122.60
2019-02-19T16:45:43.674Z,107.20
2019-02-19T16:48:40.602Z,112.20
2019-02-19T16:51:43.606Z,119.60
2019-02-19T16:54:43.313Z,122.40
2019-02-19T16:57:21.926Z,127.20
2019-02-19T17:00:07.077Z,129.40
2019-02-19T17:02:58.917Z,122.60
2019-02-19T17:05:49.412Z,135.80
2019-02-19T17:08:38.475Z,113.00
2019-02-19T17:11:32.651Z,139.20
2019-02-19T17:14:22.852Z,156.60
2019-02-19T17:17:25.225Z,161.60
2019-02-19T17:20:26.479Z,133.60
2019-02-19T17:23:04.580Z,126.20
2019-02-19T17:25:44.743Z,121.20
2019-02-19T17:28:47.091Z,123.20
2019-02-19T17:31:28.811Z,126.80
2019-02-19T17:34:17.465Z,133.40
2019-02-19T17:37:14.297Z,132.80
2019-02-19T17:39:58.989Z,125.80
2019-02-19T17:42:37.833Z,135.80
2019-02-19T17:45:24.393Z,121.00
2019-02-19T17:48:04.654Z,148.40
2019-02-19T17:50:56.547Z,159.60
2019-02-19T17:53:55.661Z,176.80
2019-02-19T17:56:44.274Z,189.20
2019-02-19T17:59:50.064Z,183.00
2019-02-19T18:02:30.825Z,197.40
2019-02-19T18:05:24.046Z,197.80
2019-02-19T18:08:12.949Z,205.60
2019-02-19T18:11:12.624Z,215.00
2019-02-19T18:13:48.819Z,250.20
2019-02-19T18:16:37.356Z,189.00
2019-02-19T18:19:09.057Z,182.60
2019-02-19T18:21:41.855Z,161.80
2019-02-19T18:24:13.437Z,137.00
2019-02-19T18:26:44.891Z,148.60
2019-02-19T18:29:16.405Z,106.40
2019-02-19T18:31:47.795Z,127.20
2019-02-19T18:34:19.021Z,139.20
2019-02-19T18:36:50.521Z,143.80
2019-02-19T18:39:21.884Z,112.80
2019-02-19T18:41:53.238Z,129.00
2019-02-19T18:44:24.657Z,139.60
2019-02-19T18:46:56.708Z,139.80
2019-02-19T18:49:28.127Z,137.20
2019-02-19T18:51:59.268Z,142.80
2019-02-19T18:54:30.458Z,130.40
2019-02-19T18:57:01.860Z,132.60
2019-02-19T18:59:34.462Z,132.00
2019-02-19T19:02:06.170Z,127.20
2019-02-19T19:04:37.808Z,133.60
2019-02-19T19:07:09.170Z,133.40
2019-02-19T19:09:40.665Z,123.20
2019-02-19T19:12:11.829Z,124.80
2019-02-19T19:14:43.728Z,136.80
2019-02-19T19:17:15.436Z,136.80
2019-02-19T19:19:46.799Z,122.00
2019-02-19T19:22:18.070Z,134.60
2019-02-19T19:24:49.418Z,133.60
2019-02-19T19:27:20.623Z,128.40
2019-02-19T19:29:52.013Z,132.80
2019-02-19T19:32:23.304Z,137.40
2019-02-19T19:34:54.650Z,127.20
2019-02-19T19:37:26.478Z,125.60
2019-02-19T19:39:57.930Z,136.60
2019-02-19T19:42:29.560Z,134.40
2019-02-19T19:45:00.982Z,138.20
2019-02-19T19:47:32.690Z,156.60
2019-02-19T19:50:04.637Z,166.00
2019-02-19T19:52:36.251Z,170.80
2019-02-19T19:55:08.293Z,162.80
2019-02-19T19:57:39.847Z,171.00
2019-02-19T20:00:11.324Z,148.40
2019-02-19T20:02:42.946Z,150.20
2019-02-19T20:05:14.032Z,153.00
2019-02-19T20:07:45.620Z,160.60
2019-02-19T20:10:16.755Z,165.40
2019-02-19T20:12:48.408Z,153.20
2019-02-19T20:15:19.746Z,160.40
2019-02-19T20:17:51.089Z,141.60
2019-02-19T20:20:22.566Z,129.20
2019-02-19T20:22:53.953Z,132.40
2019-02-19T20:25:25.265Z,119.60
2019-02-19T20:27:56.545Z,131.00
2019-02-19T20:30:28.254Z,136.80
2019-02-19T20:32:59.608Z,126.80
2019-02-19T20:35:30.601Z,124.60
2019-02-19T20:38:01.824Z,122.40
2019-02-19T20:40:33.301Z,119.00
2019-02-19T20:43:04.913Z,123.60
2019-02-19T20:45:36.405Z,123.40
2019-02-19T20:48:08.040Z,115.40
2019-02-19T20:50:39.586Z,121.00
2019-02-19T20:53:11.958Z,121.00
2019-02-19T20:55:43.879Z,128.00
2019-02-19T20:58:15.219Z,123.40
2019-02-19T21:00:46.447Z,112.60
2019-02-19T21:03:17.934Z,132.40
2019-02-19T21:05:49.447Z,122.00
2019-02-19T21:08:20.831Z,126.80
2019-02-19T21:10:52.214Z,124.80
2019-02-19T21:13:24.092Z,111.20
2019-02-19T21:15:56.003Z,122.20
2019-02-19T21:18:27.812Z,115.80
2019-02-19T21:20:59.250Z,122.00
2019-02-19T21:23:30.588Z,119.80
2019-02-19T21:26:02.011Z,121.80
2019-02-19T21:28:33.877Z,122.80
2019-02-19T21:31:05.578Z,114.40
2019-02-19T21:33:36.971Z,113.40
2019-02-19T21:36:08.786Z,126.40
2019-02-19T21:38:41.126Z,122.80
2019-02-19T21:41:12.485Z,125.40
2019-02-19T21:43:43.947Z,117.40
2019-02-19T21:46:15.397Z,130.20
2019-02-19T21:48:48.235Z,123.40
2019-02-19T21:51:20.124Z,110.20
2019-02-19T21:53:51.850Z,111.80
2019-02-19T21:56:23.381Z,118.40
2019-02-19T21:58:54.927Z,129.20
2019-02-19T22:01:26.375Z,148.20
2019-02-19T22:03:57.695Z,154.00
2019-02-19T22:06:29.427Z,164.80
2019-02-19T22:09:00.759Z,139.60
2019-02-19T22:11:33.856Z,159.40
2019-02-19T22:14:05.308Z,154.80
2019-02-19T22:16:36.433Z,158.20
2019-02-19T22:19:09.035Z,135.20
2019-02-19T22:22:03.468Z,121.40
2019-02-19T22:24:40.077Z,121.80
2019-02-19T22:27:11.681Z,118.00
2019-02-19T22:29:43.661Z,119.80
2019-02-19T22:32:16.810Z,106.60
2019-02-19T22:34:48.312Z,118.20
2019-02-19T22:37:19.567Z,108.60
2019-02-19T22:39:51.337Z,122.20
2019-02-19T22:42:22.559Z,110.20
2019-02-19T22:44:55.021Z,103.00
2019-02-19T22:47:26.370Z,114.60
2019-02-19T22:49:58.126Z,113.80
2019-02-19T22:52:29.355Z,121.00
2019-02-19T22:55:13.130Z,114.80
2019-02-19T22:57:44.490Z,117.20
2019-02-19T23:00:36.161Z,110.00
2019-02-19T23:03:09.028Z,120.60
2019-02-19T23:05:40.937Z,114.20
2019-02-19T23:08:12.582Z,111.60
2019-02-19T23:10:44.076Z,117.20
2019-02-19T23:13:15.975Z,119.20
2019-02-19T23:15:47.954Z,123.20
2019-02-19T23:18:19.475Z,121.80
2019-02-19T23:20:51.338Z,122.80
2019-02-19T23:23:23.004Z,121.60
2019-02-19T23:25:54.830Z,129.40
2019-02-19T23:28:26.389Z,121.20
2019-02-19T23:30:57.997Z,125.80
2019-02-19T23:33:29.543Z,117.80
2019-02-19T23:36:15.179Z,116.60
2019-02-19T23:38:47.265Z,122.60
2019-02-19T23:41:19.426Z,117.60
2019-02-19T23:43:50.963Z,128.60
2019-02-19T23:46:22.607Z,106.40
2019-02-19T23:48:54.088Z,118.80
2019-02-19T23:51:25.511Z,121.00
2019-02-19T23:53:56.971Z,128.60
2019-02-19T23:56:28.613Z,118.00
2019-02-19T23:59:00.377Z,123.60
